Etusivu
METAR-TAF:

METAR-TAF

Lentoasemat :

Souillac

Brive-la-Gaillarde, Ranska

Leveyspiiri: 45-02-28N, Pituuspiiri: 001-28-59E, korkeus merenpinnasta: 311 m

Tämänhetkinen sää

Tämä raportti tehtiin 44 minuuttia sitten, kello 12.30 UTC
Tuuli 6 kn idästä/kaakosta, vaihdellen idän/koillisen ja etelän välillä
Lämpötila 21°C
Kosteus 28%
Ilmanpaine 1028 hPa
Näkyvyys 10 km tai enemmän
ei pilviä alle 1500 m:ssä eikä cumulonimbus-pilviä

METAR: LFSL 251230Z AUTO 12006KT 060V190 CAVOK 21/02 Q1028 NOSIG

Aika: 15:14 (13:14 UTC)

Sääennuste

Tämä raportti tehtiin 2 tuntia ja 14 minuuttia sitten, kello 11.00 UTC
Ennuste voimassa 25. päivästä klo 12 UTC - 25. päivään klo 21 UTC
Tuuli 3 kn eri suunnista
Näkyvyys 10 km tai enemmän
ei pilviä alle 1500 m:ssä eikä cumulonimbus-pilviä

TAF: LFSL 251100Z 2512/2521 VRB03KT CAVOK

Säähavainnot ja -ennusteet yli 4000 lentoasemalta (METAR- ja TAF-raportit).

Käytössä olevat sääasemat on merkitty karttaan keltaisilla ja punaisilla pisteillä.

Aseta hiiri pisteen päälle nähdäksesi sääaseman nimen.

Klikkaa sitten nähdäksesi säähavainnot ja -ennusteet.

Kartan vaihtaminen: klikkaa mustalla rastilla varustettuja vihreitä pisteitä, niin voit zoomata sisään; viivalla varustettua vihreää pistettä, niin voit zoomata ulos tai vihreitä nuolia, niin pääset viereisille kartoille.


METAR-TAF: